sensor_id;sensor_type;location;lat;lon;timestamp;pressure;altitude;pressure_sealevel;temperature;humidity
51261;BME280;61705;46.228;24.812;2023-01-29T00:01:34;97694.06;;;-0.76;96.21
51261;BME280;61705;46.228;24.812;2023-01-29T00:04:01;97695.81;;;-0.75;96.37
51261;BME280;61705;46.228;24.812;2023-01-29T00:06:27;97702.75;;;-0.75;96.44
51261;BME280;61705;46.228;24.812;2023-01-29T00:08:54;97706.19;;;-0.73;96.61
51261;BME280;61705;46.228;24.812;2023-01-29T00:11:21;97707.06;;;-0.71;96.74
51261;BME280;61705;46.228;24.812;2023-01-29T00:13:49;97717.44;;;-0.71;96.51
51261;BME280;61705;46.228;24.812;2023-01-29T00:16:17;97707.06;;;-0.71;96.62
51261;BME280;61705;46.228;24.812;2023-01-29T00:18:44;97715.69;;;-0.69;96.62
51261;BME280;61705;46.228;24.812;2023-01-29T00:21:13;97710.50;;;-0.66;96.63
51261;BME280;61705;46.228;24.812;2023-01-29T00:23:41;97714.84;;;-0.65;96.40
51261;BME280;61705;46.228;24.812;2023-01-29T00:26:09;97721.75;;;-0.67;96.25
51261;BME280;61705;46.228;24.812;2023-01-29T00:28:36;97718.28;;;-0.66;96.02
51261;BME280;61705;46.228;24.812;2023-01-29T00:31:10;97720.03;;;-0.66;95.81
51261;BME280;61705;46.228;24.812;2023-01-29T00:33:37;97721.75;;;-0.67;95.84
51261;BME280;61705;46.228;24.812;2023-01-29T00:36:05;97716.56;;;-0.65;95.58
51261;BME280;61705;46.228;24.812;2023-01-29T00:38:32;97713.09;;;-0.69;95.27
51261;BME280;61705;46.228;24.812;2023-01-29T00:41:12;97714.84;;;-0.71;95.11
51261;BME280;61705;46.228;24.812;2023-01-29T00:43:59;97726.09;;;-0.67;95.14
51261;BME280;61705;46.228;24.812;2023-01-29T00:46:44;97711.38;;;-0.72;95.16
51261;BME280;61705;46.228;24.812;2023-01-29T00:49:11;97716.56;;;-0.73;95.09
51261;BME280;61705;46.228;24.812;2023-01-29T00:51:38;97719.16;;;-0.76;95.46
51261;BME280;61705;46.228;24.812;2023-01-29T00:54:05;97722.63;;;-0.74;95.47
51261;BME280;61705;46.228;24.812;2023-01-29T00:56:36;97726.94;;;-0.76;95.49
51261;BME280;61705;46.228;24.812;2023-01-29T00:59:03;97730.38;;;-0.79;95.62
51261;BME280;61705;46.228;24.812;2023-01-29T01:01:30;97728.66;;;-0.80;95.80
51261;BME280;61705;46.228;24.812;2023-01-29T01:04:15;97726.94;;;-0.76;95.97
51261;BME280;61705;46.228;24.812;2023-01-29T01:06:42;97722.63;;;-0.77;95.67
51261;BME280;61705;46.228;24.812;2023-01-29T01:09:09;97727.81;;;-0.77;95.76
51261;BME280;61705;46.228;24.812;2023-01-29T01:12:00;97732.13;;;-0.78;95.86
51261;BME280;61705;46.228;24.812;2023-01-29T01:14:27;97737.31;;;-0.81;95.78
51261;BME280;61705;46.228;24.812;2023-01-29T01:16:53;97744.25;;;-0.77;95.83
51261;BME280;61705;46.228;24.812;2023-01-29T01:19:20;97738.19;;;-0.77;95.76
51261;BME280;61705;46.228;24.812;2023-01-29T01:21:47;97741.63;;;-0.80;95.81
51261;BME280;61705;46.228;24.812;2023-01-29T01:24:14;97743.38;;;-0.80;95.81
51261;BME280;61705;46.228;24.812;2023-01-29T01:26:41;97735.59;;;-0.83;95.76
51261;BME280;61705;46.228;24.812;2023-01-29T01:29:10;97738.19;;;-0.86;95.95
51261;BME280;61705;46.228;24.812;2023-01-29T01:31:36;97736.47;;;-0.89;96.01
51261;BME280;61705;46.228;24.812;2023-01-29T01:34:03;97742.50;;;-0.87;95.96
51261;BME280;61705;46.228;24.812;2023-01-29T01:36:30;97737.31;;;-0.87;96.05
51261;BME280;61705;46.228;24.812;2023-01-29T01:38:57;97734.72;;;-0.81;96.04
51261;BME280;61705;46.228;24.812;2023-01-29T01:41:24;97745.97;;;-0.82;95.92
51261;BME280;61705;46.228;24.812;2023-01-29T01:43:52;97738.16;;;-0.92;95.67
51261;BME280;61705;46.228;24.812;2023-01-29T01:46:22;97734.72;;;-0.84;95.78
51261;BME280;61705;46.228;24.812;2023-01-29T01:48:54;97732.13;;;-0.82;95.44
51261;BME280;61705;46.228;24.812;2023-01-29T01:51:25;97735.59;;;-0.82;95.09
51261;BME280;61705;46.228;24.812;2023-01-29T01:54:08;97736.47;;;-0.81;94.89
51261;BME280;61705;46.228;24.812;2023-01-29T01:56:41;97733.00;;;-0.86;94.37
51261;BME280;61705;46.228;24.812;2023-01-29T01:59:15;97737.31;;;-0.90;94.27
51261;BME280;61705;46.228;24.812;2023-01-29T02:01:46;97732.13;;;-0.91;94.13
51261;BME280;61705;46.228;24.812;2023-01-29T02:04:18;97741.66;;;-0.87;93.99
51261;BME280;61705;46.228;24.812;2023-01-29T02:07:11;97733.88;;;-0.84;93.63
51261;BME280;61705;46.228;24.812;2023-01-29T02:10:12;97733.88;;;-0.87;93.39
51261;BME280;61705;46.228;24.812;2023-01-29T02:12:42;97738.19;;;-0.94;93.15
51261;BME280;61705;46.228;24.812;2023-01-29T02:15:10;97740.75;;;-0.92;93.14
51261;BME280;61705;46.228;24.812;2023-01-29T02:17:37;97745.97;;;-0.91;93.27
51261;BME280;61705;46.228;24.812;2023-01-29T02:20:26;97747.69;;;-0.94;93.07
51261;BME280;61705;46.228;24.812;2023-01-29T02:30:39;97750.28;;;-0.94;92.63
51261;BME280;61705;46.228;24.812;2023-01-29T02:33:18;97755.47;;;-1.01;92.56
51261;BME280;61705;46.228;24.812;2023-01-29T02:38:59;97747.66;;;-0.96;91.99
51261;BME280;61705;46.228;24.812;2023-01-29T02:44:39;97758.94;;;-1.02;91.28
51261;BME280;61705;46.228;24.812;2023-01-29T02:49:39;97754.59;;;-1.01;90.71
51261;BME280;61705;46.228;24.812;2023-01-29T02:52:15;97745.94;;;-1.05;90.56
51261;BME280;61705;46.228;24.812;2023-01-29T02:54:52;97751.13;;;-1.03;90.47
51261;BME280;61705;46.228;24.812;2023-01-29T02:57:24;97752.88;;;-1.05;90.27
51261;BME280;61705;46.228;24.812;2023-01-29T02:59:59;97759.78;;;-1.06;90.15
51261;BME280;61705;46.228;24.812;2023-01-29T03:05:02;97760.59;;;-1.13;90.06
51261;BME280;61705;46.228;24.812;2023-01-29T03:07:36;97769.25;;;-1.20;90.26
51261;BME280;61705;46.228;24.812;2023-01-29T03:10:18;97772.69;;;-1.21;90.60
51261;BME280;61705;46.228;24.812;2023-01-29T03:12:52;97772.72;;;-1.20;90.71
51261;BME280;61705;46.228;24.812;2023-01-29T03:15:27;97769.25;;;-1.14;90.80
51261;BME280;61705;46.228;24.812;2023-01-29T03:18:06;97775.31;;;-1.13;90.61
51261;BME280;61705;46.228;24.812;2023-01-29T03:20:53;97775.31;;;-1.20;90.82
51261;BME280;61705;46.228;24.812;2023-01-29T03:23:29;97771.84;;;-1.17;90.78
51261;BME280;61705;46.228;24.812;2023-01-29T03:26:17;97777.03;;;-1.20;90.88
51261;BME280;61705;46.228;24.812;2023-01-29T03:29:05;97769.25;;;-1.17;90.77
51261;BME280;61705;46.228;24.812;2023-01-29T03:31:52;97768.41;;;-1.19;90.51
51261;BME280;61705;46.228;24.812;2023-01-29T03:34:48;97776.16;;;-1.22;90.25
51261;BME280;61705;46.228;24.812;2023-01-29T03:37:22;97768.34;;;-1.27;90.20
51261;BME280;61705;46.228;24.812;2023-01-29T03:39:52;97770.09;;;-1.33;90.16
51261;BME280;61705;46.228;24.812;2023-01-29T03:52:49;97794.22;;;-1.40;90.38
51261;BME280;61705;46.228;24.812;2023-01-29T04:00:29;97792.56;;;-1.26;90.34
51261;BME280;61705;46.228;24.812;2023-01-29T04:05:42;97796.88;;;-1.28;89.95
51261;BME280;61705;46.228;24.812;2023-01-29T04:08:13;97793.44;;;-1.29;89.93
51261;BME280;61705;46.228;24.812;2023-01-29T04:10:43;97790.84;;;-1.29;89.97
51261;BME280;61705;46.228;24.812;2023-01-29T04:13:12;97790.84;;;-1.26;90.32
51261;BME280;61705;46.228;24.812;2023-01-29T04:15:45;97791.69;;;-1.24;89.29
51261;BME280;61705;46.228;24.812;2023-01-29T04:18:13;97793.44;;;-1.29;89.10
51261;BME280;61705;46.228;24.812;2023-01-29T04:20:40;97790.78;;;-1.38;89.16
51261;BME280;61705;46.228;24.812;2023-01-29T04:23:19;97795.13;;;-1.40;89.28
51261;BME280;61705;46.228;24.812;2023-01-29T04:31:29;97806.25;;;-1.67;89.95
51261;BME280;61705;46.228;24.812;2023-01-29T04:34:11;97810.47;;;-1.78;90.00
51261;BME280;61705;46.228;24.812;2023-01-29T04:39:48;97813.06;;;-1.84;90.97
51261;BME280;61705;46.228;24.812;2023-01-29T04:42:43;97811.38;;;-1.78;91.07
51261;BME280;61705;46.228;24.812;2023-01-29T04:59:41;97821.78;;;-1.67;90.76
51261;BME280;61705;46.228;24.812;2023-01-29T05:02:11;97807.97;;;-1.63;90.56
51261;BME280;61705;46.228;24.812;2023-01-29T05:04:40;97813.19;;;-1.57;90.31
51261;BME280;61705;46.228;24.812;2023-01-29T05:07:11;97821.81;;;-1.59;90.17
51261;BME280;61705;46.228;24.812;2023-01-29T05:09:41;97828.69;;;-1.66;90.24
51261;BME280;61705;46.228;24.812;2023-01-29T05:12:10;97831.22;;;-1.75;90.45
51261;BME280;61705;46.228;24.812;2023-01-29T05:14:40;97826.94;;;-1.73;90.60
51261;BME280;61705;46.228;24.812;2023-01-29T05:17:13;97828.63;;;-1.75;90.62
51261;BME280;61705;46.228;24.812;2023-01-29T05:19:41;97828.59;;;-1.80;90.87
51261;BME280;61705;46.228;24.812;2023-01-29T05:22:10;97828.63;;;-1.77;90.93
51261;BME280;61705;46.228;24.812;2023-01-29T05:24:37;97829.50;;;-1.73;91.17
51261;BME280;61705;46.228;24.812;2023-01-29T05:27:04;97837.22;;;-1.84;90.99
51261;BME280;61705;46.228;24.812;2023-01-29T05:29:49;97838.94;;;-1.83;91.11
51261;BME280;61705;46.228;24.812;2023-01-29T05:32:16;97835.47;;;-1.88;91.26
51261;BME280;61705;46.228;24.812;2023-01-29T05:34:43;97839.81;;;-1.82;91.32
51261;BME280;61705;46.228;24.812;2023-01-29T05:37:09;97843.31;;;-1.77;91.32
51261;BME280;61705;46.228;24.812;2023-01-29T05:39:36;97844.16;;;-1.77;91.45
51261;BME280;61705;46.228;24.812;2023-01-29T05:42:03;97851.91;;;-1.83;91.33
51261;BME280;61705;46.228;24.812;2023-01-29T05:44:29;97859.56;;;-2.00;91.13
51261;BME280;61705;46.228;24.812;2023-01-29T05:46:56;97858.75;;;-1.93;91.52
51261;BME280;61705;46.228;24.812;2023-01-29T05:49:23;97849.22;;;-1.98;91.61
51261;BME280;61705;46.228;24.812;2023-01-29T05:51:49;97853.44;;;-2.09;91.62
51261;BME280;61705;46.228;24.812;2023-01-29T05:54:16;97865.53;;;-2.07;91.61
51261;BME280;61705;46.228;24.812;2023-01-29T05:56:43;97862.09;;;-2.06;91.79
51261;BME280;61705;46.228;24.812;2023-01-29T05:59:09;97865.53;;;-2.11;91.77
51261;BME280;61705;46.228;24.812;2023-01-29T06:01:37;97866.44;;;-2.05;91.73
51261;BME280;61705;46.228;24.812;2023-01-29T06:04:04;97872.44;;;-2.07;91.82
51261;BME280;61705;46.228;24.812;2023-01-29T06:06:30;97875.88;;;-2.10;91.57
51261;BME280;61705;46.228;24.812;2023-01-29T06:08:57;97882.66;;;-2.24;91.52
51261;BME280;61705;46.228;24.812;2023-01-29T06:11:24;97884.34;;;-2.32;91.44
51261;BME280;61705;46.228;24.812;2023-01-29T06:13:50;97886.88;;;-2.37;91.43
51261;BME280;61705;46.228;24.812;2023-01-29T06:16:17;97892.09;;;-2.32;91.33
51261;BME280;61705;46.228;24.812;2023-01-29T06:18:44;97887.69;;;-2.43;90.90
51261;BME280;61705;46.228;24.812;2023-01-29T06:21:12;97889.41;;;-2.45;90.75
51261;BME280;61705;46.228;24.812;2023-01-29T06:23:39;97898.94;;;-2.38;90.88
51261;BME280;61705;46.228;24.812;2023-01-29T06:26:09;97901.56;;;-2.34;90.91
51261;BME280;61705;46.228;24.812;2023-01-29T06:28:37;97898.06;;;-2.36;90.59
51261;BME280;61705;46.228;24.812;2023-01-29T06:31:04;97903.41;;;-2.20;90.78
51261;BME280;61705;46.228;24.812;2023-01-29T06:33:51;97903.31;;;-2.30;90.38
51261;BME280;61705;46.228;24.812;2023-01-29T06:36:18;97913.69;;;-2.26;90.39
51261;BME280;61705;46.228;24.812;2023-01-29T06:38:45;97909.50;;;-2.15;90.67
51261;BME280;61705;46.228;24.812;2023-01-29T06:41:16;97907.75;;;-2.16;90.62
51261;BME280;61705;46.228;24.812;2023-01-29T06:43:44;97907.72;;;-2.20;90.27
51261;BME280;61705;46.228;24.812;2023-01-29T06:46:11;97913.75;;;-2.20;90.05
51261;BME280;61705;46.228;24.812;2023-01-29T06:48:38;97908.56;;;-2.23;89.94
51261;BME280;61705;46.228;24.812;2023-01-29T06:51:06;97911.13;;;-2.23;90.04
51261;BME280;61705;46.228;24.812;2023-01-29T06:53:37;97909.53;;;-2.10;90.36
51261;BME280;61705;46.228;24.812;2023-01-29T06:56:04;97913.88;;;-2.06;90.20
51261;BME280;61705;46.228;24.812;2023-01-29T06:58:31;97913.78;;;-2.18;89.64
51261;BME280;61705;46.228;24.812;2023-01-29T07:01:06;97912.06;;;-2.18;89.40
51261;BME280;61705;46.228;24.812;2023-01-29T07:03:33;97908.56;;;-2.23;89.20
51261;BME280;61705;46.228;24.812;2023-01-29T07:06:00;97914.56;;;-2.28;89.06
51261;BME280;61705;46.228;24.812;2023-01-29T07:08:27;97913.81;;;-2.15;89.28
51261;BME280;61705;46.228;24.812;2023-01-29T07:10:59;97913.00;;;-2.08;89.58
51261;BME280;61705;46.228;24.812;2023-01-29T07:13:26;97906.06;;;-2.09;89.49
51261;BME280;61705;46.228;24.812;2023-01-29T07:15:53;97917.41;;;-1.96;89.34
51261;BME280;61705;46.228;24.812;2023-01-29T07:18:20;97906.09;;;-2.06;88.71
51261;BME280;61705;46.228;24.812;2023-01-29T07:20:46;97908.66;;;-2.10;88.08
51261;BME280;61705;46.228;24.812;2023-01-29T07:23:14;97904.34;;;-2.10;88.22
51261;BME280;61705;46.228;24.812;2023-01-29T07:25:41;97908.78;;;-1.98;88.28
51261;BME280;61705;46.228;24.812;2023-01-29T07:28:08;97910.56;;;-1.91;88.64
51261;BME280;61705;46.228;24.812;2023-01-29T07:30:35;97920.91;;;-1.89;88.49
51261;BME280;61705;46.228;24.812;2023-01-29T07:33:03;97915.78;;;-1.83;88.54
51261;BME280;61705;46.228;24.812;2023-01-29T07:35:37;97912.31;;;-1.87;88.46
51261;BME280;61705;46.228;24.812;2023-01-29T07:38:06;97908.88;;;-1.83;88.19
51261;BME280;61705;46.228;24.812;2023-01-29T07:40:34;97911.53;;;-1.72;88.27
51261;BME280;61705;46.228;24.812;2023-01-29T07:43:02;97915.84;;;-1.77;87.86
51261;BME280;61705;46.228;24.812;2023-01-29T07:45:30;97913.28;;;-1.68;88.38
51261;BME280;61705;46.228;24.812;2023-01-29T07:47:57;97917.66;;;-1.62;88.27
51261;BME280;61705;46.228;24.812;2023-01-29T07:50:25;97918.50;;;-1.67;87.74
51261;BME280;61705;46.228;24.812;2023-01-29T07:52:55;97920.25;;;-1.61;87.86
51261;BME280;61705;46.228;24.812;2023-01-29T07:55:22;97910.72;;;-1.65;87.25
51261;BME280;61705;46.228;24.812;2023-01-29T07:58:00;97913.25;;;-1.77;86.69
51261;BME280;61705;46.228;24.812;2023-01-29T08:00:28;97910.69;;;-1.73;87.18
51261;BME280;61705;46.228;24.812;2023-01-29T08:03:06;97904.72;;;-1.55;87.28
51261;BME280;61705;46.228;24.812;2023-01-29T08:05:35;97903.00;;;-1.56;87.45
51261;BME280;61705;46.228;24.812;2023-01-29T08:08:02;97900.47;;;-1.50;87.24
51261;BME280;61705;46.228;24.812;2023-01-29T08:10:34;97903.09;;;-1.39;86.91
51261;BME280;61705;46.228;24.812;2023-01-29T08:13:02;97897.06;;;-1.35;86.67
51261;BME280;61705;46.228;24.812;2023-01-29T08:15:29;97901.41;;;-1.31;86.33
51261;BME280;61705;46.228;24.812;2023-01-29T08:17:55;97904.91;;;-1.24;86.73
51261;BME280;61705;46.228;24.812;2023-01-29T08:20:42;97907.50;;;-1.26;86.23
51261;BME280;61705;46.228;24.812;2023-01-29T08:23:13;97911.00;;;-1.19;86.08
51261;BME280;61705;46.228;24.812;2023-01-29T08:25:40;97915.28;;;-1.21;85.87
51261;BME280;61705;46.228;24.812;2023-01-29T08:28:07;97918.78;;;-1.14;85.59
51261;BME280;61705;46.228;24.812;2023-01-29T08:30:34;97919.66;;;-1.15;85.71
51261;BME280;61705;46.228;24.812;2023-01-29T08:33:03;97918.78;;;-1.11;85.96
51261;BME280;61705;46.228;24.812;2023-01-29T08:35:32;97916.19;;;-1.14;85.00
51261;BME280;61705;46.228;24.812;2023-01-29T08:38:01;97910.19;;;-1.00;85.66
51261;BME280;61705;46.228;24.812;2023-01-29T08:40:32;97914.59;;;-0.83;86.01
51261;BME280;61705;46.228;24.812;2023-01-29T08:43:04;97911.13;;;-0.82;85.61
51261;BME280;61705;46.228;24.812;2023-01-29T08:45:37;97917.19;;;-0.79;85.82
51261;BME280;61705;46.228;24.812;2023-01-29T08:48:06;97917.22;;;-0.66;85.65
51261;BME280;61705;46.228;24.812;2023-01-29T08:50:33;97924.97;;;-0.77;85.25
51261;BME280;61705;46.228;24.812;2023-01-29T08:53:04;97912.03;;;-0.62;85.24
51261;BME280;61705;46.228;24.812;2023-01-29T08:55:35;97915.53;;;-0.61;84.97
51261;BME280;61705;46.228;24.812;2023-01-29T08:58:04;97917.28;;;-0.51;85.03
51261;BME280;61705;46.228;24.812;2023-01-29T09:00:32;97919.88;;;-0.46;84.37
51261;BME280;61705;46.228;24.812;2023-01-29T09:02:59;97916.38;;;-0.61;84.38
51261;BME280;61705;46.228;24.812;2023-01-29T09:05:29;97918.97;;;-0.64;84.09
51261;BME280;61705;46.228;24.812;2023-01-29T09:07:56;97921.56;;;-0.62;84.34
51261;BME280;61705;46.228;24.812;2023-01-29T09:10:24;97912.91;;;-0.64;84.20
51261;BME280;61705;46.228;24.812;2023-01-29T09:12:50;97922.50;;;-0.37;84.39
51261;BME280;61705;46.228;24.812;2023-01-29T09:15:17;97917.31;;;-0.22;84.27
51261;BME280;61705;46.228;24.812;2023-01-29T09:17:44;97923.38;;;-0.15;84.17
51261;BME280;61705;46.228;24.812;2023-01-29T09:20:11;97919.94;;;-0.13;84.11
51261;BME280;61705;46.228;24.812;2023-01-29T09:22:41;97924.25;;;-0.13;83.97
51261;BME280;61705;46.228;24.812;2023-01-29T09:25:08;97919.91;;;-0.16;84.01
51261;BME280;61705;46.228;24.812;2023-01-29T09:27:36;97917.34;;;-0.10;83.94
51261;BME280;61705;46.228;24.812;2023-01-29T09:30:06;97916.44;;;-0.07;83.75
51261;BME280;61705;46.228;24.812;2023-01-29T09:32:35;97916.47;;;0.01;83.27
51261;BME280;61705;46.228;24.812;2023-01-29T09:35:20;97906.94;;;0.09;83.13
51261;BME280;61705;46.228;24.812;2023-01-29T09:37:48;97904.31;;;0.26;83.29
51261;BME280;61705;46.228;24.812;2023-01-29T09:40:40;97905.19;;;0.32;83.06
51261;BME280;61705;46.228;24.812;2023-01-29T09:46:17;97911.25;;;0.25;81.85
51261;BME280;61705;46.228;24.812;2023-01-29T09:48:46;97907.78;;;0.34;81.62
51261;BME280;61705;46.228;24.812;2023-01-29T09:51:29;97896.50;;;0.39;80.73
51261;BME280;61705;46.228;24.812;2023-01-29T09:56:34;97892.16;;;0.40;79.42
51261;BME280;61705;46.228;24.812;2023-01-29T09:59:11;97892.16;;;0.52;79.31
51261;BME280;61705;46.228;24.812;2023-01-29T10:01:58;97884.38;;;0.46;78.90
51261;BME280;61705;46.228;24.812;2023-01-29T10:24:08;97865.25;;;0.67;78.28
51261;BME280;61705;46.228;24.812;2023-01-29T10:26:39;97860.88;;;0.70;78.28
51261;BME280;61705;46.228;24.812;2023-01-29T10:29:06;97867.81;;;0.76;78.17
51261;BME280;61705;46.228;24.812;2023-01-29T10:31:38;97860.00;;;0.78;78.18
51261;BME280;61705;46.228;24.812;2023-01-29T10:34:13;97861.69;;;0.89;78.06
51261;BME280;61705;46.228;24.812;2023-01-29T10:36:45;97864.25;;;1.03;77.95
51261;BME280;61705;46.228;24.812;2023-01-29T10:39:20;97849.47;;;1.02;77.87
51261;BME280;61705;46.228;24.812;2023-01-29T10:41:59;97854.69;;;1.07;77.33
51261;BME280;61705;46.228;24.812;2023-01-29T10:47:20;97840.72;;;1.18;76.00
51261;BME280;61705;46.228;24.812;2023-01-29T10:53:31;97838.94;;;1.25;75.27
51261;BME280;61705;46.228;24.812;2023-01-29T10:56:19;97833.81;;;1.17;75.00
51261;BME280;61705;46.228;24.812;2023-01-29T11:01:58;97832.84;;;1.32;74.75
51261;BME280;61705;46.228;24.812;2023-01-29T11:04:27;97827.66;;;1.29;74.59
51261;BME280;61705;46.228;24.812;2023-01-29T11:06:57;97835.50;;;1.22;74.58
51261;BME280;61705;46.228;24.812;2023-01-29T11:09:34;97838.06;;;1.26;74.72
51261;BME280;61705;46.228;24.812;2023-01-29T11:14:44;97840.81;;;1.06;74.44
51261;BME280;61705;46.228;24.812;2023-01-29T11:17:21;97837.25;;;1.18;74.66
51261;BME280;61705;46.228;24.812;2023-01-29T11:19:50;97840.72;;;1.23;75.01
51261;BME280;61705;46.228;24.812;2023-01-29T11:22:19;97837.16;;;1.33;74.52
51261;BME280;61705;46.228;24.812;2023-01-29T11:25:09;97837.22;;;1.23;74.30
51261;BME280;61705;46.228;24.812;2023-01-29T11:27:55;97844.19;;;1.24;74.67
51261;BME280;61705;46.228;24.812;2023-01-29T11:30:25;97838.91;;;1.30;74.72
51261;BME280;61705;46.228;24.812;2023-01-29T11:33:16;97841.50;;;1.30;74.64
51261;BME280;61705;46.228;24.812;2023-01-29T11:35:43;97840.66;;;1.26;74.78
51261;BME280;61705;46.228;24.812;2023-01-29T11:38:27;97853.69;;;1.26;74.97
51261;BME280;61705;46.228;24.812;2023-01-29T11:41:14;97852.91;;;1.12;74.89
51261;BME280;61705;46.228;24.812;2023-01-29T11:43:44;97859.91;;;1.01;75.05
51261;BME280;61705;46.228;24.812;2023-01-29T11:46:13;97852.94;;;1.06;75.45
51261;BME280;61705;46.228;24.812;2023-01-29T11:48:48;97855.59;;;1.00;75.14
51261;BME280;61705;46.228;24.812;2023-01-29T11:51:22;97847.78;;;1.00;75.21
51261;BME280;61705;46.228;24.812;2023-01-29T11:53:56;97851.25;;;0.94;75.76
51261;BME280;61705;46.228;24.812;2023-01-29T11:56:38;97849.50;;;1.04;75.70
51261;BME280;61705;46.228;24.812;2023-01-29T11:59:28;97848.63;;;1.02;75.42
51261;BME280;61705;46.228;24.812;2023-01-29T12:04:48;97838.28;;;0.92;75.04
51261;BME280;61705;46.228;24.812;2023-01-29T12:07:17;97840.88;;;0.92;75.38
51261;BME280;61705;46.228;24.812;2023-01-29T12:09:51;97842.59;;;0.97;75.49
51261;BME280;61705;46.228;24.812;2023-01-29T12:12:28;97845.16;;;1.03;75.54
51261;BME280;61705;46.228;24.812;2023-01-29T12:15:03;97845.16;;;1.03;75.32
51261;BME280;61705;46.228;24.812;2023-01-29T12:17:32;97847.78;;;1.00;75.16
51261;BME280;61705;46.228;24.812;2023-01-29T12:20:09;97839.91;;;1.10;75.52
51261;BME280;61705;46.228;24.812;2023-01-29T12:22:50;97848.63;;;0.99;75.32
51261;BME280;61705;46.228;24.812;2023-01-29T12:28:21;97837.44;;;0.84;75.90
51261;BME280;61705;46.228;24.812;2023-01-29T12:31:10;97829.59;;;0.92;76.07
51261;BME280;61705;46.228;24.812;2023-01-29T12:34:15;97832.16;;;0.95;75.51
51261;BME280;61705;46.228;24.812;2023-01-29T12:36:59;97831.31;;;0.94;75.71
51261;BME280;61705;46.228;24.812;2023-01-29T12:39:28;97835.63;;;0.97;76.39
51261;BME280;61705;46.228;24.812;2023-01-29T12:42:04;97828.75;;;0.90;76.46
51261;BME280;61705;46.228;24.812;2023-01-29T12:44:40;97831.41;;;0.79;76.09
51261;BME280;61705;46.228;24.812;2023-01-29T12:47:37;97832.25;;;0.77;76.62
51261;BME280;61705;46.228;24.812;2023-01-29T12:50:50;97825.34;;;0.76;76.22
51261;BME280;61705;46.228;24.812;2023-01-29T12:55:25;97826.19;;;0.81;76.71
51261;BME280;61705;46.228;24.812;2023-01-29T12:57:58;97829.72;;;0.66;76.27
51261;BME280;61705;46.228;24.812;2023-01-29T13:00:28;97829.75;;;0.55;76.66
51261;BME280;61705;46.228;24.812;2023-01-29T13:03:13;97819.38;;;0.46;76.68
51261;BME280;61705;46.228;24.812;2023-01-29T13:05:50;97821.97;;;0.43;77.25
51261;BME280;61705;46.228;24.812;2023-01-29T13:09:10;97828.94;;;0.38;77.64
51261;BME280;61705;46.228;24.812;2023-01-29T13:11:15;97829.81;;;0.32;77.50
51261;BME280;61705;46.228;24.812;2023-01-29T13:13:54;97826.38;;;0.21;77.50
51261;BME280;61705;46.228;24.812;2023-01-29T13:16:34;97827.25;;;0.09;78.00
51261;BME280;61705;46.228;24.812;2023-01-29T13:21:40;97819.47;;;0.11;78.48
51261;BME280;61705;46.228;24.812;2023-01-29T13:24:13;97824.66;;;0.14;78.84
51261;BME280;61705;46.228;24.812;2023-01-29T13:26:45;97816.84;;;0.18;78.64
51261;BME280;61705;46.228;24.812;2023-01-29T13:29:29;97822.91;;;0.07;78.40
51261;BME280;61705;46.228;24.812;2023-01-29T13:31:58;97827.28;;;-0.02;78.46
51261;BME280;61705;46.228;24.812;2023-01-29T13:34:35;97824.69;;;-0.06;78.74
51261;BME280;61705;46.228;24.812;2023-01-29T13:37:11;97835.09;;;-0.18;79.13
51261;BME280;61705;46.228;24.812;2023-01-29T13:39:51;97827.31;;;-0.17;78.72
51261;BME280;61705;46.228;24.812;2023-01-29T13:42:21;97826.41;;;-0.28;79.09
51261;BME280;61705;46.228;24.812;2023-01-29T13:44:51;97835.09;;;-0.31;79.59
51261;BME280;61705;46.228;24.812;2023-01-29T13:47:29;97841.13;;;-0.32;79.59
51261;BME280;61705;46.228;24.812;2023-01-29T13:50:18;97848.06;;;-0.35;79.89
51261;BME280;61705;46.228;24.812;2023-01-29T13:52:58;97848.94;;;-0.29;80.01
51261;BME280;61705;46.228;24.812;2023-01-29T13:58:06;97848.06;;;-0.28;80.50
51261;BME280;61705;46.228;24.812;2023-01-29T14:05:41;97846.34;;;-0.36;80.11
51261;BME280;61705;46.228;24.812;2023-01-29T14:10:36;97848.06;;;-0.35;80.83
51261;BME280;61705;46.228;24.812;2023-01-29T14:15:32;97850.66;;;-0.43;80.37
51261;BME280;61705;46.228;24.812;2023-01-29T14:18:20;97847.19;;;-0.48;80.88
51261;BME280;61705;46.228;24.812;2023-01-29T14:23:26;97854.97;;;-0.50;81.27
51261;BME280;61705;46.228;24.812;2023-01-29T14:25:54;97848.94;;;-0.50;81.42
51261;BME280;61705;46.228;24.812;2023-01-29T14:28:24;97848.91;;;-0.45;81.42
51261;BME280;61705;46.228;24.812;2023-01-29T14:30:52;97849.78;;;-0.53;81.40
51261;BME280;61705;46.228;24.812;2023-01-29T14:33:35;97846.34;;;-0.55;81.88
51261;BME280;61705;46.228;24.812;2023-01-29T14:36:07;97853.25;;;-0.61;81.62
51261;BME280;61705;46.228;24.812;2023-01-29T14:38:36;97855.81;;;-0.63;81.98
51261;BME280;61705;46.228;24.812;2023-01-29T14:41:19;97848.03;;;-0.66;81.74
51261;BME280;61705;46.228;24.812;2023-01-29T14:43:49;97855.81;;;-0.66;81.68
51261;BME280;61705;46.228;24.812;2023-01-29T14:49:01;97853.22;;;-0.70;82.13
51261;BME280;61705;46.228;24.812;2023-01-29T14:51:33;97856.66;;;-0.81;82.54
51261;BME280;61705;46.228;24.812;2023-01-29T14:54:16;97850.59;;;-0.77;82.66
51261;BME280;61705;46.228;24.812;2023-01-29T14:56:57;97862.75;;;-0.71;82.58
51261;BME280;61705;46.228;24.812;2023-01-29T15:02:23;97859.22;;;-0.82;82.34
51261;BME280;61705;46.228;24.812;2023-01-29T15:04:55;97866.16;;;-0.83;82.66
51261;BME280;61705;46.228;24.812;2023-01-29T15:07:29;97858.38;;;-0.80;82.84
51261;BME280;61705;46.228;24.812;2023-01-29T15:10:13;97858.38;;;-0.81;82.98
51261;BME280;61705;46.228;24.812;2023-01-29T15:12:59;97855.75;;;-0.90;82.43
51261;BME280;61705;46.228;24.812;2023-01-29T15:15:53;97863.53;;;-0.95;82.74
51261;BME280;61705;46.228;24.812;2023-01-29T15:21:03;97865.28;;;-0.96;83.21
51261;BME280;61705;46.228;24.812;2023-01-29T15:23:33;97866.13;;;-0.97;83.21
51261;BME280;61705;46.228;24.812;2023-01-29T15:26:22;97872.16;;;-1.02;83.42
51261;BME280;61705;46.228;24.812;2023-01-29T15:28:57;97864.38;;;-1.02;83.59
51261;BME280;61705;46.228;24.812;2023-01-29T15:31:30;97870.44;;;-0.94;83.54
51261;BME280;61705;46.228;24.812;2023-01-29T15:33:59;97872.16;;;-0.98;83.29